createdAt,value
2018-12-15T00:00:53.392Z,99953.89
2018-12-15T00:03:22.249Z,99963.42
2018-12-15T00:05:51.128Z,99963.39
2018-12-15T00:08:20.108Z,99953.69
2018-12-15T00:10:48.910Z,99955.11
2018-12-15T00:13:17.913Z,99951.12
2018-12-15T00:15:46.916Z,99960.23
2018-12-15T00:18:15.704Z,99961.69
2018-12-15T00:20:44.492Z,99962.83
2018-12-15T00:23:13.374Z,99964.39
2018-12-15T00:25:42.469Z,99965.03
2018-12-15T00:28:11.417Z,99952.91
2018-12-15T00:30:40.309Z,99949.82
2018-12-15T00:33:09.193Z,99954.94
2018-12-15T00:35:38.084Z,99952.77
2018-12-15T00:38:07.074Z,99948.88
2018-12-15T00:40:35.977Z,99938.51
2018-12-15T00:43:04.858Z,99948.88
2018-12-15T00:45:33.852Z,99945.84
2018-12-15T00:48:02.788Z,99939.81
2018-12-15T00:50:31.568Z,99939.42
2018-12-15T00:53:00.548Z,99940.72
2018-12-15T00:55:29.526Z,99940.72
2018-12-15T00:57:58.404Z,99940.33
2018-12-15T01:00:27.306Z,99948.74
2018-12-15T01:02:56.300Z,99938.08
2018-12-15T01:05:25.205Z,99941.16
2018-12-15T01:07:54.126Z,99944.11
2018-12-15T01:10:23.042Z,99946.23
2018-12-15T01:12:52.172Z,99943.54
2018-12-15T01:15:26.691Z,99940.51
2018-12-15T01:17:55.570Z,99940.77
2018-12-15T01:20:24.561Z,99944.84
2018-12-15T01:22:53.343Z,99941.63
2018-12-15T01:25:22.345Z,99935.73
2018-12-15T01:27:51.445Z,99934.01
2018-12-15T01:30:20.377Z,99928.66
2018-12-15T01:32:49.156Z,99916.75
2018-12-15T01:35:18.082Z,99914.63
2018-12-15T01:37:47.082Z,99915.79
2018-12-15T01:40:16.140Z,99906.47
2018-12-15T01:42:45.141Z,99912.06
2018-12-15T01:45:14.035Z,99922.25
2018-12-15T01:47:42.942Z,99922.43
2018-12-15T01:50:11.853Z,99930.31
2018-12-15T01:52:40.877Z,99921.17
2018-12-15T01:55:09.678Z,99916.45
2018-12-15T01:57:38.497Z,99905.00
2018-12-15T02:00:08.125Z,99901.71
2018-12-15T02:02:37.142Z,99901.71
2018-12-15T02:05:06.149Z,99901.78
2018-12-15T02:07:34.986Z,99906.30
2018-12-15T02:10:04.713Z,99901.31
2018-12-15T02:12:33.609Z,99885.28
2018-12-15T02:15:02.467Z,99884.76
2018-12-15T02:17:33.728Z,99882.25
2018-12-15T02:20:02.785Z,99894.50
2018-12-15T02:22:31.778Z,99899.27
2018-12-15T02:25:00.564Z,99905.91
2018-12-15T02:27:29.440Z,99909.25
2018-12-15T02:29:58.336Z,99905.86
2018-12-15T02:32:27.133Z,99913.41
2018-12-15T02:34:56.023Z,99912.20
2018-12-15T02:37:24.964Z,99917.91
2018-12-15T02:39:53.880Z,99920.48
2018-12-15T02:42:22.779Z,99922.69
2018-12-15T02:44:52.205Z,99923.21
2018-12-15T02:47:21.121Z,99927.20
2018-12-15T02:49:49.965Z,99925.89
2018-12-15T02:52:18.901Z,99923.43
2018-12-15T02:54:47.820Z,99917.95
2018-12-15T02:57:16.606Z,99925.63
2018-12-15T02:59:45.583Z,99913.62
2018-12-15T03:02:14.570Z,99902.34
2018-12-15T03:04:43.457Z,99911.97
2018-12-15T03:07:12.404Z,99923.59
2018-12-15T03:09:41.402Z,99926.93
2018-12-15T03:12:10.313Z,99918.40
2018-12-15T03:14:39.117Z,99921.09
2018-12-15T03:17:08.147Z,99923.64
2018-12-15T03:19:37.048Z,99921.17
2018-12-15T03:22:05.858Z,99919.83
2018-12-15T03:24:34.760Z,99928.71
2018-12-15T03:27:03.769Z,99926.80
2018-12-15T03:29:32.565Z,99922.30
2018-12-15T03:32:04.706Z,99923.81
2018-12-15T03:34:33.671Z,99917.19
2018-12-15T03:37:02.566Z,99907.98
2018-12-15T03:39:31.552Z,99918.69
2018-12-15T03:42:01.020Z,99919.61
2018-12-15T03:44:30.537Z,99918.05
2018-12-15T03:46:59.433Z,99919.95
2018-12-15T03:49:28.468Z,99919.86
2018-12-15T03:51:57.409Z,99911.89
2018-12-15T03:54:26.304Z,99918.40
2018-12-15T03:56:55.088Z,99923.07
2018-12-15T03:59:24.337Z,99922.34
2018-12-15T04:01:53.218Z,99910.64
2018-12-15T04:04:22.106Z,99915.35
2018-12-15T04:06:50.977Z,99909.20
2018-12-15T04:09:19.848Z,99912.41
2018-12-15T04:11:48.690Z,99913.72
2018-12-15T04:14:17.574Z,99923.12
2018-12-15T04:16:46.564Z,99923.07
2018-12-15T04:19:15.613Z,99926.24
2018-12-15T04:21:44.510Z,99931.70
2018-12-15T04:24:13.423Z,99919.17
2018-12-15T04:26:42.309Z,99922.36
2018-12-15T04:29:12.522Z,99917.58
2018-12-15T04:31:41.421Z,99919.25
2018-12-15T04:34:10.345Z,99918.66
2018-12-15T04:36:39.363Z,99919.47
2018-12-15T04:39:08.156Z,99910.11
2018-12-15T04:41:37.039Z,99912.38
2018-12-15T04:44:06.085Z,99913.71
2018-12-15T04:46:34.973Z,99921.50
2018-12-15T04:49:03.889Z,99919.04
2018-12-15T04:51:32.889Z,99921.50
2018-12-15T04:54:01.684Z,99920.68
2018-12-15T04:56:31.346Z,99922.62
2018-12-15T04:59:00.407Z,99919.81
2018-12-15T05:01:29.562Z,99925.98
2018-12-15T05:03:59.370Z,99923.33
2018-12-15T05:06:28.397Z,99927.05
2018-12-15T05:08:57.281Z,99930.09
2018-12-15T05:11:26.157Z,99930.70
2018-12-15T05:13:55.052Z,99922.50
2018-12-15T05:16:23.950Z,99918.27
2018-12-15T05:18:52.845Z,99915.70
2018-12-15T05:21:21.729Z,99924.87
2018-12-15T05:23:50.696Z,99922.55
2018-12-15T05:26:19.508Z,99929.69
2018-12-15T05:28:48.311Z,99918.86
2018-12-15T05:31:17.157Z,99928.35
2018-12-15T05:33:46.052Z,99930.08
2018-12-15T05:36:15.186Z,99928.27
2018-12-15T05:38:43.973Z,99924.28
2018-12-15T05:41:13.014Z,99919.91
2018-12-15T05:43:42.032Z,99936.45
2018-12-15T05:46:11.063Z,99932.93
2018-12-15T05:48:39.963Z,99936.59
2018-12-15T05:51:08.769Z,99932.02
2018-12-15T05:53:37.669Z,99923.73
2018-12-15T05:56:06.637Z,99919.81
2018-12-15T05:58:35.442Z,99921.89
2018-12-15T06:01:04.282Z,99922.07
2018-12-15T06:03:33.164Z,99924.05
2018-12-15T06:06:02.098Z,99919.33
2018-12-15T06:08:31.108Z,99915.20
2018-12-15T06:11:00.097Z,99919.16
2018-12-15T06:16:04.544Z,99925.45
2018-12-15T06:18:33.598Z,99923.83
2018-12-15T06:21:02.483Z,99924.45
2018-12-15T06:23:31.367Z,99927.97
2018-12-15T06:26:00.279Z,99916.59
2018-12-15T06:28:29.172Z,99910.17
2018-12-15T06:30:57.968Z,99915.72
2018-12-15T06:33:26.973Z,99919.53
2018-12-15T06:35:55.865Z,99913.89
2018-12-15T06:38:24.855Z,99914.22
2018-12-15T06:40:53.765Z,99913.89
2018-12-15T06:43:22.924Z,99908.89
2018-12-15T06:45:52.061Z,99907.91
2018-12-15T06:48:20.983Z,99905.64
2018-12-15T06:50:49.761Z,99916.39
2018-12-15T06:53:18.537Z,99907.18
2018-12-15T06:55:47.451Z,99910.61
2018-12-15T06:58:16.241Z,99911.95
2018-12-15T07:00:45.146Z,99927.09
2018-12-15T07:03:14.200Z,99918.74
2018-12-15T07:05:43.107Z,99912.28
2018-12-15T07:08:12.012Z,99917.50
2018-12-15T07:10:40.918Z,99914.55
2018-12-15T07:13:09.705Z,99929.20
2018-12-15T07:15:38.649Z,99924.72
2018-12-15T07:18:07.554Z,99924.77
2018-12-15T07:20:36.444Z,99920.00
2018-12-15T07:23:05.223Z,99924.29
2018-12-15T07:25:34.395Z,99924.29
2018-12-15T07:28:03.236Z,99916.42
2018-12-15T07:30:32.413Z,99913.44
2018-12-15T07:33:01.386Z,99916.47
2018-12-15T07:35:30.268Z,99925.20
2018-12-15T07:37:59.226Z,99921.41
2018-12-15T07:40:28.146Z,99931.87
2018-12-15T07:42:56.924Z,99940.36
2018-12-15T07:45:25.934Z,99943.34
2018-12-15T07:47:54.849Z,99941.60
2018-12-15T07:50:23.660Z,99941.70
2018-12-15T07:52:52.497Z,99938.47
2018-12-15T07:55:21.329Z,99942.09
2018-12-15T07:57:50.168Z,99941.47
2018-12-15T08:00:19.066Z,99944.89
2018-12-15T08:02:47.947Z,99943.20
2018-12-15T08:05:16.945Z,99944.89
2018-12-15T08:07:45.838Z,99948.17
2018-12-15T08:10:19.131Z,99947.50
2018-12-15T08:12:52.509Z,99945.33
2018-12-15T08:15:21.312Z,99948.79
2018-12-15T08:17:51.073Z,99950.11
2018-12-15T08:20:20.007Z,99948.41
2018-12-15T08:22:49.172Z,99950.48
2018-12-15T08:25:18.077Z,99949.56
2018-12-15T08:27:46.864Z,99938.05
2018-12-15T08:30:15.765Z,99937.56
2018-12-15T08:32:45.533Z,99928.59
2018-12-15T08:35:14.603Z,99931.16
2018-12-15T08:37:43.498Z,99928.45
2018-12-15T08:40:13.101Z,99921.34
2018-12-15T08:42:42.016Z,99921.94
2018-12-15T08:45:11.057Z,99924.16
2018-12-15T08:47:39.868Z,99936.16
2018-12-15T08:50:08.859Z,99932.47
2018-12-15T08:52:37.901Z,99940.73
2018-12-15T08:55:06.958Z,99934.75
2018-12-15T08:57:35.997Z,99927.04
2018-12-15T09:00:05.697Z,99934.52
2018-12-15T09:02:34.696Z,99927.53
2018-12-15T09:05:03.913Z,99920.55
2018-12-15T09:07:32.869Z,99920.69
2018-12-15T09:10:01.979Z,99921.93
2018-12-15T09:12:30.964Z,99916.34
2018-12-15T09:14:59.776Z,99911.52
2018-12-15T09:17:28.678Z,99907.08
2018-12-15T09:19:57.586Z,99897.91
2018-12-15T09:22:26.420Z,99882.23
2018-12-15T09:24:55.674Z,99893.68
2018-12-15T09:27:24.601Z,99893.59
2018-12-15T09:29:53.384Z,99881.69
2018-12-15T09:32:22.289Z,99878.81
2018-12-15T09:34:51.142Z,99877.14
2018-12-15T09:37:20.027Z,99871.93
2018-12-15T09:39:48.994Z,99874.25
2018-12-15T09:42:17.872Z,99879.68
2018-12-15T09:44:46.761Z,99864.81
2018-12-15T09:47:15.657Z,99858.69
2018-12-15T09:49:44.585Z,99852.48
2018-12-15T09:52:13.532Z,99855.25
2018-12-15T09:54:42.431Z,99859.84
2018-12-15T09:57:11.240Z,99850.14
2018-12-15T09:59:40.148Z,99847.98
2018-12-15T10:02:09.045Z,99861.27
2018-12-15T10:04:37.923Z,99863.59
2018-12-15T10:07:06.809Z,99863.25
2018-12-15T10:09:35.598Z,99873.30
2018-12-15T10:12:04.545Z,99855.34
2018-12-15T10:14:33.346Z,99877.88
2018-12-15T10:17:02.269Z,99868.17
2018-12-15T10:19:31.273Z,99854.11
2018-12-15T10:22:00.160Z,99841.55
2018-12-15T10:24:29.219Z,99834.83
2018-12-15T10:26:58.212Z,99849.09
2018-12-15T10:29:32.552Z,99853.38
2018-12-15T10:32:06.741Z,99856.00
2018-12-15T10:34:35.566Z,99835.22
2018-12-15T10:37:04.478Z,99828.42
2018-12-15T10:39:33.505Z,99842.40
2018-12-15T10:42:03.017Z,99823.42
2018-12-15T10:44:32.012Z,99826.59
2018-12-15T10:47:00.968Z,99834.77
2018-12-15T10:49:30.882Z,99822.17
2018-12-15T10:51:59.941Z,99816.52
2018-12-15T10:54:28.839Z,99822.54
2018-12-15T10:56:57.656Z,99826.52
2018-12-15T10:59:26.492Z,99805.99
2018-12-15T11:01:55.389Z,99835.30
2018-12-15T11:04:24.285Z,99813.42
2018-12-15T11:06:53.569Z,99824.71
2018-12-15T11:09:22.473Z,99816.84
2018-12-15T11:11:51.467Z,99788.23
2018-12-15T11:14:20.581Z,99814.44
2018-12-15T11:16:49.533Z,99816.36
2018-12-15T11:19:18.345Z,99818.02
2018-12-15T11:21:47.322Z,99826.11
2018-12-15T11:24:16.217Z,99806.54
2018-12-15T11:26:45.218Z,99826.48
2018-12-15T11:29:14.247Z,99800.52
2018-12-15T11:31:43.136Z,99821.88
2018-12-15T11:34:12.041Z,99795.42
2018-12-15T11:36:41.033Z,99802.37
2018-12-15T11:39:09.836Z,99817.16
2018-12-15T11:41:38.630Z,99798.05
2018-12-15T11:44:07.664Z,99811.69
2018-12-15T11:46:36.470Z,99807.79
2018-12-15T11:49:05.295Z,99811.56
2018-12-15T11:51:34.199Z,99804.98
2018-12-15T11:54:03.110Z,99793.30
2018-12-15T11:56:32.377Z,99793.81
2018-12-15T11:59:01.315Z,99799.45
2018-12-15T12:01:30.133Z,99786.91
2018-12-15T12:03:59.088Z,99798.59
2018-12-15T12:06:28.076Z,99799.47
2018-12-15T12:08:57.284Z,99806.09
2018-12-15T12:11:26.264Z,99804.24
2018-12-15T12:14:00.245Z,99805.16
2018-12-15T12:16:26.138Z,99798.52
2018-12-15T12:18:55.050Z,99798.54
2018-12-15T12:21:23.944Z,99787.59
2018-12-15T12:23:52.849Z,99797.91
2018-12-15T12:26:21.789Z,99790.00
2018-12-15T12:28:50.613Z,99779.47
2018-12-15T12:31:19.522Z,99765.55
2018-12-15T12:33:48.462Z,99763.13
2018-12-15T12:36:17.257Z,99752.83
2018-12-15T12:38:46.049Z,99750.02
2018-12-15T12:41:14.945Z,99759.84
2018-12-15T12:43:43.776Z,99764.87
2018-12-15T12:46:12.588Z,99761.30
2018-12-15T12:48:41.476Z,99750.41
2018-12-15T12:51:10.405Z,99760.59
2018-12-15T12:53:39.193Z,99756.92
2018-12-15T12:56:08.101Z,99756.56
2018-12-15T12:58:37.026Z,99766.23
2018-12-15T13:01:05.838Z,99764.64
2018-12-15T13:03:34.748Z,99766.27
2018-12-15T13:06:03.705Z,99771.70
2018-12-15T13:08:32.609Z,99759.77
2018-12-15T13:11:01.557Z,99750.84
2018-12-15T13:13:30.584Z,99754.75
2018-12-15T13:15:59.519Z,99752.88
2018-12-15T13:18:28.499Z,99756.67
2018-12-15T13:20:57.406Z,99765.06
2018-12-15T13:23:26.448Z,99765.68
2018-12-15T13:25:55.469Z,99778.17
2018-12-15T13:28:24.504Z,99783.62
2018-12-15T13:30:53.508Z,99783.68
2018-12-15T13:33:35.593Z,99780.66
2018-12-15T13:36:11.641Z,99766.29
2018-12-15T13:38:40.617Z,99760.83
2018-12-15T13:41:09.550Z,99749.98
2018-12-15T13:43:38.458Z,99754.19
2018-12-15T13:46:07.494Z,99757.63
2018-12-15T13:48:36.424Z,99763.92
2018-12-15T13:51:05.509Z,99755.62
2018-12-15T13:53:34.463Z,99752.98
2018-12-15T13:56:03.437Z,99753.12
2018-12-15T13:58:32.352Z,99741.90
2018-12-15T14:01:01.301Z,99738.55
2018-12-15T14:03:30.084Z,99747.12
2018-12-15T14:05:59.119Z,99748.58
2018-12-15T14:08:27.928Z,99751.47
2018-12-15T14:10:56.822Z,99762.77
2018-12-15T14:13:25.776Z,99751.08
2018-12-15T14:15:54.661Z,99742.89
2018-12-15T14:18:23.637Z,99745.38
2018-12-15T14:20:52.524Z,99753.02
2018-12-15T14:23:21.476Z,99750.90
2018-12-15T14:25:50.487Z,99750.04
2018-12-15T14:28:19.433Z,99731.84
2018-12-15T14:30:48.444Z,99720.67
2018-12-15T14:33:17.387Z,99706.42
2018-12-15T14:35:46.270Z,99715.90
2018-12-15T14:38:15.662Z,99729.67
2018-12-15T14:40:44.563Z,99729.17
2018-12-15T14:43:13.555Z,99725.03
2018-12-15T14:45:42.342Z,99721.37
2018-12-15T14:48:11.254Z,99729.25
2018-12-15T14:50:40.462Z,99727.19
2018-12-15T14:53:09.386Z,99727.64
2018-12-15T14:55:38.382Z,99731.19
2018-12-15T14:58:07.417Z,99735.02
2018-12-15T15:00:36.387Z,99732.20
2018-12-15T15:03:05.254Z,99733.14
2018-12-15T15:05:34.219Z,99730.82
2018-12-15T15:08:03.209Z,99726.83
2018-12-15T15:10:32.276Z,99729.33
2018-12-15T15:13:01.258Z,99733.47
2018-12-15T15:15:30.188Z,99735.20
2018-12-15T15:17:59.238Z,99734.62
2018-12-15T15:20:29.923Z,99733.53
2018-12-15T15:22:59.325Z,99723.09
2018-12-15T15:25:28.250Z,99727.58
2018-12-15T15:27:57.143Z,99736.94
2018-12-15T15:30:25.934Z,99736.42
2018-12-15T15:32:54.810Z,99720.92
2018-12-15T15:35:23.798Z,99722.50
2018-12-15T15:37:52.802Z,99722.66
2018-12-15T15:40:21.611Z,99737.16
2018-12-15T15:42:51.320Z,99735.35
2018-12-15T15:45:20.213Z,99725.03
2018-12-15T15:50:24.609Z,99711.93
2018-12-15T15:52:53.416Z,99720.20
2018-12-15T15:55:22.218Z,99720.98
2018-12-15T15:57:51.109Z,99730.05
2018-12-15T16:00:20.029Z,99731.80
2018-12-15T16:02:48.983Z,99733.89
2018-12-15T16:05:17.965Z,99728.00
2018-12-15T16:07:47.117Z,99723.67
2018-12-15T16:10:15.949Z,99730.61
2018-12-15T16:12:44.841Z,99729.83
2018-12-15T16:15:14.285Z,99725.16
2018-12-15T16:17:44.253Z,99725.99
2018-12-15T16:20:13.324Z,99721.25
2018-12-15T16:22:42.369Z,99718.22
2018-12-15T16:25:11.190Z,99721.25
2018-12-15T16:27:40.173Z,99728.52
2018-12-15T16:30:11.424Z,99727.42
2018-12-15T16:32:40.985Z,99731.12
2018-12-15T16:35:10.369Z,99730.97
2018-12-15T16:37:39.302Z,99720.67
2018-12-15T16:40:08.844Z,99724.22
2018-12-15T16:42:37.879Z,99726.41
2018-12-15T16:45:09.858Z,99718.09
2018-12-15T16:47:39.070Z,99717.51
2018-12-15T16:50:11.445Z,99717.07
2018-12-15T16:52:40.827Z,99716.03
2018-12-15T16:55:10.362Z,99725.47
2018-12-15T16:57:39.330Z,99721.92
2018-12-15T17:00:13.557Z,99709.95
2018-12-15T17:02:42.458Z,99724.89
2018-12-15T17:05:11.389Z,99720.67
2018-12-15T17:07:41.214Z,99730.47
2018-12-15T17:10:10.023Z,99722.73
2018-12-15T17:12:39.645Z,99719.81
2018-12-15T17:15:09.153Z,99726.13
2018-12-15T17:17:38.082Z,99722.45
2018-12-15T17:20:08.449Z,99721.13
2018-12-15T17:22:37.762Z,99715.94
2018-12-15T17:25:07.678Z,99709.91
2018-12-15T17:27:36.697Z,99707.88
2018-12-15T17:30:07.459Z,99707.08
2018-12-15T17:32:36.356Z,99709.69
2018-12-15T17:35:06.718Z,99708.30
2018-12-15T17:37:36.559Z,99709.09
2018-12-15T17:40:07.445Z,99703.74
2018-12-15T17:42:36.887Z,99716.98
2018-12-15T17:45:07.212Z,99712.22
2018-12-15T17:47:36.124Z,99710.83
2018-12-15T17:50:05.785Z,99708.38
2018-12-15T17:52:34.687Z,99705.36
2018-12-15T17:55:04.713Z,99700.55
2018-12-15T17:57:33.728Z,99691.61
2018-12-15T18:00:04.113Z,99702.22
2018-12-15T18:02:34.191Z,99700.34
2018-12-15T18:05:03.369Z,99700.42
2018-12-15T18:07:32.319Z,99700.91
2018-12-15T18:10:01.271Z,99696.56
2018-12-15T18:12:30.186Z,99698.39
2018-12-15T18:14:59.078Z,99702.44
2018-12-15T18:17:29.861Z,99701.13
2018-12-15T18:19:58.713Z,99701.94
2018-12-15T18:22:27.958Z,99698.45
2018-12-15T18:24:57.658Z,99697.06
2018-12-15T18:27:26.590Z,99687.93
2018-12-15T18:29:55.492Z,99690.56
2018-12-15T18:32:24.530Z,99692.73
2018-12-15T18:34:53.481Z,99685.70
2018-12-15T18:37:22.925Z,99677.80
2018-12-15T18:39:52.143Z,99693.08
2018-12-15T18:42:21.153Z,99696.22
2018-12-15T18:44:50.076Z,99682.43
2018-12-15T18:47:18.949Z,99672.87
2018-12-15T18:49:47.948Z,99664.09
2018-12-15T18:52:16.965Z,99666.70
2018-12-15T18:54:45.870Z,99669.25
2018-12-15T18:57:14.804Z,99676.19
2018-12-15T18:59:43.717Z,99694.76
2018-12-15T19:02:13.091Z,99696.72
2018-12-15T19:04:41.990Z,99689.03
2018-12-15T19:07:10.886Z,99697.64
2018-12-15T19:09:39.892Z,99697.64
2018-12-15T19:12:08.862Z,99693.96
2018-12-15T19:14:37.764Z,99698.14
2018-12-15T19:17:06.741Z,99699.47
2018-12-15T19:19:35.626Z,99698.23
2018-12-15T19:22:04.530Z,99697.64
2018-12-15T19:24:33.442Z,99701.27
2018-12-15T19:27:02.258Z,99704.11
2018-12-15T19:29:32.068Z,99702.22
2018-12-15T19:32:01.601Z,99701.21
2018-12-15T19:34:30.509Z,99709.52
2018-12-15T19:37:01.271Z,99706.42
2018-12-15T19:39:32.087Z,99712.95
2018-12-15T19:42:01.182Z,99711.30
2018-12-15T19:44:30.567Z,99710.81
2018-12-15T19:47:00.729Z,99704.23
2018-12-15T19:49:29.929Z,99694.75
2018-12-15T19:51:58.852Z,99683.42
2018-12-15T19:54:27.694Z,99681.07
2018-12-15T19:56:56.609Z,99670.41
2018-12-15T19:59:26.190Z,99654.27
2018-12-15T20:01:55.000Z,99642.50
2018-12-15T20:04:23.901Z,99632.93
2018-12-15T20:06:53.672Z,99634.62
2018-12-15T20:09:22.711Z,99649.63
2018-12-15T20:11:51.598Z,99665.70
2018-12-15T20:14:20.396Z,99655.55
2018-12-15T20:16:49.297Z,99671.58
2018-12-15T20:19:18.332Z,99672.30
2018-12-15T20:21:47.140Z,99676.80
2018-12-15T20:24:16.693Z,99670.28
2018-12-15T20:26:45.604Z,99683.08
2018-12-15T20:29:14.498Z,99676.63
2018-12-15T20:31:43.416Z,99670.72
2018-12-15T20:34:12.769Z,99683.69
2018-12-15T20:36:41.709Z,99686.61
2018-12-15T20:39:10.582Z,99670.95
2018-12-15T20:41:39.484Z,99681.69
2018-12-15T20:44:08.383Z,99666.06
2018-12-15T20:46:37.172Z,99687.23
2018-12-15T20:49:05.957Z,99687.05
2018-12-15T20:51:34.867Z,99686.07
2018-12-15T20:54:03.855Z,99678.22
2018-12-15T20:56:32.773Z,99680.85
2018-12-15T20:59:01.661Z,99684.82
2018-12-15T21:01:30.706Z,99684.62
2018-12-15T21:03:59.620Z,99692.81
2018-12-15T21:06:28.532Z,99691.83
2018-12-15T21:08:57.409Z,99699.84
2018-12-15T21:11:26.305Z,99701.59
2018-12-15T21:13:55.189Z,99698.41
2018-12-15T21:16:25.602Z,99693.17
2018-12-15T21:18:54.509Z,99685.55
2018-12-15T21:21:23.532Z,99690.70
2018-12-15T21:23:52.649Z,99687.16
2018-12-15T21:26:21.539Z,99684.55
2018-12-15T21:28:50.347Z,99685.91
2018-12-15T21:31:19.183Z,99684.82
2018-12-15T21:33:48.195Z,99681.16
2018-12-15T21:36:17.180Z,99674.00
2018-12-15T21:38:46.056Z,99667.09
2018-12-15T21:41:14.947Z,99672.20
2018-12-15T21:43:43.824Z,99667.06
2018-12-15T21:46:13.481Z,99667.17
2018-12-15T21:48:42.276Z,99665.37
2018-12-15T21:51:11.080Z,99661.81
2018-12-15T21:53:40.001Z,99653.57
2018-12-15T21:56:09.114Z,99651.57
2018-12-15T21:58:38.016Z,99645.80
2018-12-15T22:01:07.032Z,99652.19
2018-12-15T22:03:35.961Z,99649.05
2018-12-15T22:06:04.870Z,99641.96
2018-12-15T22:08:33.761Z,99642.67
2018-12-15T22:11:02.592Z,99641.78
2018-12-15T22:13:31.481Z,99650.00
2018-12-15T22:16:00.261Z,99649.70
2018-12-15T22:18:29.177Z,99643.11
2018-12-15T22:20:58.320Z,99631.81
2018-12-15T22:23:27.207Z,99627.95
2018-12-15T22:25:56.103Z,99630.30
2018-12-15T22:28:24.998Z,99630.52
2018-12-15T22:30:53.906Z,99630.48
2018-12-15T22:33:22.797Z,99627.45
2018-12-15T22:35:51.608Z,99623.39
2018-12-15T22:38:20.510Z,99629.41
2018-12-15T22:40:49.297Z,99623.30
2018-12-15T22:43:18.101Z,99620.42
2018-12-15T22:45:46.907Z,99608.89
2018-12-15T22:48:15.720Z,99613.61
2018-12-15T22:50:44.612Z,99601.51
2018-12-15T22:53:13.425Z,99610.05
2018-12-15T22:55:42.707Z,99603.41
2018-12-15T22:58:11.642Z,99596.35
2018-12-15T23:00:47.189Z,99602.13
2018-12-15T23:03:16.229Z,99594.30
2018-12-15T23:05:45.138Z,99603.73
2018-12-15T23:08:13.926Z,99595.84
2018-12-15T23:10:42.858Z,99596.77
2018-12-15T23:13:11.785Z,99595.61
2018-12-15T23:15:40.685Z,99584.96
2018-12-15T23:18:09.494Z,99581.87
2018-12-15T23:20:38.512Z,99579.98
2018-12-15T23:23:07.404Z,99586.83
2018-12-15T23:25:36.300Z,99585.91
2018-12-15T23:28:05.303Z,99574.05
2018-12-15T23:30:34.216Z,99570.76
2018-12-15T23:33:03.238Z,99568.80
2018-12-15T23:35:32.249Z,99568.20
2018-12-15T23:38:01.193Z,99570.69
2018-12-15T23:40:30.003Z,99574.13
2018-12-15T23:42:58.891Z,99575.79
2018-12-15T23:45:27.697Z,99581.81
2018-12-15T23:47:56.597Z,99580.18
2018-12-15T23:50:25.511Z,99578.38
2018-12-15T23:52:54.597Z,99583.86
2018-12-15T23:55:23.493Z,99586.32
2018-12-15T23:57:52.409Z,99584.92
